Time;durP1;ratioP1;P1;durP2;ratioP2;P2;SDS_P1;SDS_P2;PMS_P1;PMS_P2;Temp;Humidity;BMP_temperature;BMP_pressure;BME280_temperature;BME280_humidity;BME280_pressure;Samples;Min_cycle;Max_cycle;Signal;HPM_P1;HPM_P2
2021/09/27 00:01:07;;;;;;;26.15;15.02;;;;;;;16.07;100.00;101498.66;5007016;28;20310;-66
2021/09/27 00:03:36;;;;;;;28.40;15.93;;;;;;;16.06;100.00;101496.94;5013703;28;20410;-66
2021/09/27 00:06:05;;;;;;;25.30;14.88;;;;;;;16.02;100.00;101490.81;5013303;28;20476;-66
2021/09/27 00:08:34;;;;;;;23.13;14.65;;;;;;;15.99;100.00;101493.63;5010312;28;20128;-66
2021/09/27 00:11:07;;;;;;;30.05;16.33;;;;;;;15.95;100.00;101488.44;5006241;28;20222;-66
2021/09/27 00:13:38;;;;;;;27.20;15.65;;;;;;;15.91;100.00;101485.03;5007626;28;20144;-66
2021/09/27 00:16:09;;;;;;;28.90;15.43;;;;;;;15.87;100.00;101486.97;5007673;28;20187;-66
2021/09/27 00:18:40;;;;;;;27.02;15.30;;;;;;;15.87;100.00;101480.72;5012341;28;20489;-66
2021/09/27 00:21:11;;;;;;;32.53;16.17;;;;;;;15.82;100.00;101482.75;5011893;28;20167;-66
2021/09/27 00:23:41;;;;;;;30.45;17.08;;;;;;;15.85;100.00;101478.09;5013380;28;20774;-66
2021/09/27 00:26:10;;;;;;;30.85;15.95;;;;;;;15.82;100.00;101472.00;5011486;28;20306;-66
2021/09/27 00:28:38;;;;;;;27.02;15.13;;;;;;;15.76;100.00;101472.25;5015426;28;20162;-66
2021/09/27 00:31:06;;;;;;;37.03;18.00;;;;;;;15.79;100.00;101469.44;5010849;28;20076;-66
2021/09/27 00:33:35;;;;;;;28.85;17.25;;;;;;;15.76;100.00;101472.25;5012630;28;20584;-68
2021/09/27 00:36:04;;;;;;;29.30;17.38;;;;;;;15.70;100.00;101459.91;5006581;28;20072;-66
2021/09/27 00:38:31;;;;;;;34.30;17.42;;;;;;;15.74;100.00;101463.34;5012626;28;20053;-66
2021/09/27 00:41:03;;;;;;;28.05;16.30;;;;;;;15.68;100.00;101459.97;5013593;28;20041;-66
2021/09/27 00:43:34;;;;;;;29.30;16.80;;;;;;;15.64;100.00;101452.97;5007301;28;20377;-66
2021/09/27 00:46:05;;;;;;;29.40;15.25;;;;;;;15.61;100.00;101457.59;5010574;28;20490;-66
2021/09/27 00:48:34;;;;;;;32.83;16.88;;;;;;;15.54;100.00;101446.22;5013852;28;20179;-67
2021/09/27 00:51:05;;;;;;;30.13;17.52;;;;;;;15.50;100.00;101456.25;5006007;28;20130;-66
2021/09/27 00:53:37;;;;;;;29.33;15.40;;;;;;;15.46;100.00;101460.03;5004688;28;20049;-66
2021/09/27 00:56:07;;;;;;;30.98;17.42;;;;;;;15.45;100.00;101463.63;5012078;28;20053;-66
2021/09/27 00:58:37;;;;;;;28.63;16.60;;;;;;;15.40;100.00;101473.72;5013616;28;20045;-66
2021/09/27 01:01:07;;;;;;;32.22;18.55;;;;;;;15.45;100.00;101465.47;5010647;28;20041;-66
2021/09/27 01:03:36;;;;;;;33.88;18.60;;;;;;;15.42;100.00;101458.38;5009948;28;20493;-66
2021/09/27 01:06:21;;;;;;;34.47;19.60;;;;;;;15.45;100.00;101452.88;5011329;28;20508;-66
2021/09/27 01:09:36;;;;;;;31.48;16.15;;;;;;;15.39;100.00;101454.97;5012536;28;20190;-66
2021/09/27 01:12:31;;;;;;;29.80;17.63;;;;;;;15.36;100.00;101444.31;5006099;28;20076;-66
2021/09/27 01:15:12;;;;;;;37.05;20.30;;;;;;;15.34;100.00;101447.13;5016695;28;20055;-67
2021/09/27 01:17:53;;;;;;;34.28;18.45;;;;;;;15.30;100.00;101445.47;5008703;28;20077;-66
2021/09/27 01:20:58;;;;;;;33.20;17.23;;;;;;;15.28;100.00;101445.53;5013815;28;20485;-66
2021/09/27 01:23:57;;;;;;;32.25;16.55;;;;;;;15.23;100.00;101452.91;5009998;28;20060;-67
2021/09/27 01:27:01;;;;;;;31.40;18.45;;;;;;;15.21;100.00;101453.94;5012187;28;20763;-66
2021/09/27 01:29:57;;;;;;;26.98;15.15;;;;;;;15.15;100.00;101452.34;5009143;28;20092;-66
2021/09/27 01:32:32;;;;;;;36.78;18.20;;;;;;;15.09;100.00;101452.63;5006520;28;20052;-66
2021/09/27 01:35:13;;;;;;;37.30;17.38;;;;;;;15.07;100.00;101450.00;5012934;28;20145;-66
2021/09/27 01:37:55;;;;;;;34.55;17.85;;;;;;;15.07;100.00;101462.56;5017427;28;20286;-67
2021/09/27 01:40:27;;;;;;;35.50;17.77;;;;;;;15.07;100.00;101465.25;5009908;28;20154;-67
2021/09/27 01:43:03;;;;;;;35.50;19.15;;;;;;;15.06;100.00;101467.06;5010333;28;20139;-66
2021/09/27 01:45:37;;;;;;;30.52;18.00;;;;;;;15.01;100.00;101461.00;5008798;28;20321;-67
2021/09/27 01:48:12;;;;;;;36.80;18.35;;;;;;;14.97;100.00;101462.06;5006201;28;20060;-67
2021/09/27 01:50:52;;;;;;;36.42;18.67;;;;;;;14.98;100.00;101457.56;5009209;28;20499;-66
2021/09/27 01:53:22;;;;;;;39.25;19.83;;;;;;;15.05;100.00;101459.94;5003506;28;20595;-65
2021/09/27 01:55:57;;;;;;;41.35;20.13;;;;;;;15.09;100.00;101452.63;5014083;28;20072;-65
2021/09/27 01:58:36;;;;;;;39.83;21.55;;;;;;;15.12;100.00;101456.06;5007235;28;20053;-66
2021/09/27 02:01:11;;;;;;;39.75;22.17;;;;;;;15.14;100.00;101458.69;5012438;28;20053;-65
2021/09/27 02:03:46;;;;;;;51.05;23.90;;;;;;;15.19;100.00;101445.03;5012690;28;20037;-65
2021/09/27 02:06:22;;;;;;;48.03;22.30;;;;;;;15.21;100.00;101451.25;5008808;28;20053;-66
2021/09/27 02:08:54;;;;;;;40.60;20.98;;;;;;;15.19;100.00;101453.09;5015741;28;20053;-65
2021/09/27 02:11:25;;;;;;;42.28;21.70;;;;;;;15.23;100.00;101452.91;5013398;28;20052;-66
2021/09/27 02:14:12;;;;;;;48.20;21.95;;;;;;;15.26;100.00;101446.56;5013848;28;21351;-66
2021/09/27 02:16:47;;;;;;;40.13;20.38;;;;;;;15.26;100.00;101455.47;5009618;28;20057;-66
2021/09/27 02:19:33;;;;;;;48.03;24.20;;;;;;;15.30;100.00;101454.41;5017366;28;20415;-66
2021/09/27 02:22:10;;;;;;;45.42;24.15;;;;;;;15.36;100.00;101453.28;5011339;28;20518;-66
2021/09/27 02:24:45;;;;;;;49.13;23.27;;;;;;;15.34;100.00;101443.53;5011053;28;20045;-66
2021/09/27 02:27:13;;;;;;;48.55;24.38;;;;;;;15.30;100.00;101445.47;5004584;28;20122;-70
2021/09/27 02:29:42;;;;;;;43.83;23.02;;;;;;;15.23;100.00;101444.00;5010539;28;20080;-70
2021/09/27 02:32:16;;;;;;;43.30;23.67;;;;;;;15.22;100.00;101437.75;5017492;28;20060;-70
2021/09/27 02:34:56;;;;;;;49.10;23.23;;;;;;;15.21;100.00;101437.81;5012875;28;20544;-70
2021/09/27 02:37:30;;;;;;;41.63;23.60;;;;;;;15.17;100.00;101436.16;5014177;28;20461;-70
2021/09/27 02:40:04;;;;;;;47.22;24.55;;;;;;;15.15;100.00;101436.22;5001451;28;20045;-70
2021/09/27 02:42:36;;;;;;;;;;;;;;;15.11;100.00;101432.78;5012493;28;20049;-69
2021/09/27 02:45:05;;;;;;;43.65;22.73;;;;;;;15.10;100.00;101430.16;5012788;28;19939;-66
2021/09/27 02:47:40;;;;;;;45.85;23.00;;;;;;;15.04;100.00;101430.44;5001852;28;20197;-66
2021/09/27 02:50:13;;;;;;;49.17;24.50;;;;;;;15.01;100.00;101431.44;5020486;28;20137;-68
2021/09/27 02:52:41;;;;;;;47.60;24.77;;;;;;;14.97;100.00;101429.81;5004174;28;20379;-68
2021/09/27 02:55:13;;;;;;;45.67;23.67;;;;;;;15.00;100.00;101431.50;5014073;28;20088;-71
2021/09/27 02:58:06;;;;;;;45.35;22.73;;;;;;;14.94;100.00;101424.56;5008794;28;20136;-70
2021/09/27 03:00:47;;;;;;;45.75;23.77;;;;;;;14.88;100.00;101420.34;5012743;28;20145;-71
2021/09/27 03:03:24;;;;;;;47.33;24.15;;;;;;;14.84;100.00;101429.44;5010199;28;20454;-70
2021/09/27 03:06:13;;;;;;;46.50;24.45;;;;;;;14.84;100.00;101423.19;5012291;28;20057;-71
2021/09/27 03:08:55;;;;;;;50.28;24.10;;;;;;;14.80;100.00;101416.22;5017334;28;20080;-69
2021/09/27 03:11:38;;;;;;;56.92;24.63;;;;;;;14.82;100.00;101419.69;5003906;28;20049;-71
2021/09/27 03:14:22;;;;;;;47.25;23.73;;;;;;;14.78;100.00;101418.97;5018353;28;20057;-71
2021/09/27 03:17:21;;;;;;;48.60;23.48;;;;;;;14.76;100.00;101415.44;5007620;28;20186;-69
2021/09/27 03:20:13;;;;;;;48.92;23.33;;;;;;;14.75;100.00;101419.94;5015934;28;20363;-68
2021/09/27 03:22:53;;;;;;;50.50;26.55;;;;;;;14.70;100.00;101416.56;5009659;28;20056;-67
2021/09/27 03:25:35;;;;;;;47.65;22.75;;;;;;;14.64;100.00;101413.25;5012072;28;20053;-68
2021/09/27 03:28:13;;;;;;;46.47;23.83;;;;;;;14.65;100.00;101415.00;5011751;28;20053;-65
2021/09/27 03:30:51;;;;;;;44.38;20.90;;;;;;;14.60;100.00;101406.25;5011942;28;20073;-68
2021/09/27 03:33:28;;;;;;;52.75;26.80;;;;;;;14.57;100.00;101404.53;5015276;28;20049;-65
2021/09/27 03:36:12;;;;;;;46.40;22.88;;;;;;;14.53;100.00;101405.59;5006233;28;20053;-65
2021/09/27 03:38:49;;;;;;;44.90;23.38;;;;;;;14.50;100.00;101398.53;5017602;28;20536;-66
2021/09/27 03:41:25;;;;;;;50.88;25.42;;;;;;;14.49;100.00;101403.94;5007614;28;20842;-66
2021/09/27 03:44:26;;;;;;;48.63;23.17;;;;;;;14.48;100.00;101391.47;5015360;28;20067;-68
2021/09/27 03:47:04;;;;;;;54.83;24.80;;;;;;;14.49;100.00;101393.22;5007153;28;20145;-66
2021/09/27 03:49:41;;;;;;;52.13;24.95;;;;;;;14.44;100.00;101388.03;5013764;28;20084;-66
2021/09/27 03:52:14;;;;;;;50.95;24.67;;;;;;;14.41;100.00;101388.16;5008112;28;20626;-66
2021/09/27 03:54:50;;;;;;;53.07;25.47;;;;;;;14.38;100.00;101391.81;5008637;28;20057;-66
2021/09/27 03:57:26;;;;;;;49.00;25.20;;;;;;;14.34;100.00;101395.56;5014677;28;20052;-66
2021/09/27 04:00:01;;;;;;;55.10;24.60;;;;;;;14.33;100.00;101403.69;5010196;28;20071;-66
2021/09/27 04:02:37;;;;;;;49.00;25.65;;;;;;;14.29;100.00;101399.38;5015099;28;20178;-66
2021/09/27 04:05:10;;;;;;;49.15;23.80;;;;;;;14.31;100.00;101392.13;5006811;28;20599;-66
2021/09/27 04:07:52;;;;;;;53.05;25.40;;;;;;;14.26;100.00;101386.94;5010814;28;20434;-66
2021/09/27 04:10:29;;;;;;;48.88;23.40;;;;;;;14.24;100.00;101390.63;5009532;28;20048;-66
2021/09/27 04:13:15;;;;;;;50.08;25.35;;;;;;;14.18;100.00;101381.88;5001756;28;20048;-67
2021/09/27 04:16:07;;;;;;;44.00;23.65;;;;;;;14.15;100.00;101386.50;5015250;28;20053;-66
2021/09/27 04:18:52;;;;;;;47.65;24.48;;;;;;;14.15;100.00;101384.69;5006940;28;20382;-66
2021/09/27 04:21:28;;;;;;;46.75;24.67;;;;;;;14.12;100.00;101374.06;5010505;28;20088;-66
2021/09/27 04:24:06;;;;;;;51.72;27.05;;;;;;;14.14;100.00;101374.00;5006385;28;20358;-67
2021/09/27 04:26:51;;;;;;;57.63;25.92;;;;;;;14.14;100.00;101374.88;5011196;28;20420;-67
2021/09/27 04:29:51;;;;;;;53.92;27.15;;;;;;;14.15;100.00;101376.63;5006786;28;21847;-67
2021/09/27 04:32:31;;;;;;;57.80;26.58;;;;;;;14.15;100.00;101373.94;5004054;28;20481;-66
2021/09/27 04:35:10;;;;;;;55.78;27.88;;;;;;;14.12;100.00;101371.38;5010910;28;20045;-66
2021/09/27 04:37:40;;;;;;;67.43;31.15;;;;;;;14.13;100.00;101375.81;5012643;28;20097;-69
2021/09/27 04:40:10;;;;;;;61.65;28.17;;;;;;;14.14;100.00;101374.00;5013105;28;20598;-70
2021/09/27 04:42:56;;;;;;;54.88;26.75;;;;;;;14.12;100.00;101373.19;5008429;28;20357;-70
2021/09/27 04:45:41;;;;;;;55.97;27.75;;;;;;;14.10;100.00;101380.44;5013764;28;20322;-67
2021/09/27 04:48:22;;;;;;;57.33;27.27;;;;;;;14.14;100.00;101374.88;5009841;28;20048;-67
2021/09/27 04:51:00;;;;;;;59.58;27.55;;;;;;;14.12;100.00;101371.38;5011831;28;20504;-70
2021/09/27 04:53:38;;;;;;;57.65;29.40;;;;;;;14.12;100.00;101371.38;5001892;28;20732;-70
2021/09/27 04:56:33;;;;;;;55.58;27.08;;;;;;;14.11;100.00;101369.63;5016477;28;20077;-70
2021/09/27 04:59:12;;;;;;;57.80;26.85;;;;;;;14.11;100.00;101374.97;5005088;28;20402;-71
2021/09/27 05:02:06;;;;;;;58.05;26.95;;;;;;;14.08;100.00;101372.44;5012074;28;20123;-70
2021/09/27 05:04:47;;;;;;;65.38;28.13;;;;;;;14.11;100.00;101363.38;5009992;28;20059;-67
2021/09/27 05:07:35;;;;;;;57.45;28.20;;;;;;;14.16;100.00;101351.53;5008672;28;20071;-67
2021/09/27 05:10:15;;;;;;;63.72;29.20;;;;;;;14.16;100.00;101348.84;5007993;28;20053;-66
2021/09/27 05:13:05;;;;;;;69.10;31.52;;;;;;;14.16;100.00;101347.97;5002825;28;20049;-66
2021/09/27 05:15:52;;;;;;;63.72;28.63;;;;;;;14.16;100.00;101340.78;5011460;28;20238;-67
2021/09/27 05:19:00;;;;;;;62.53;28.52;;;;;;;14.16;100.00;101339.91;5012571;28;21389;-66
2021/09/27 05:22:00;;;;;;;61.00;29.00;;;;;;;14.16;100.00;101335.41;4973686;28;20516;-66
2021/09/27 05:24:48;;;;;;;62.85;29.27;;;;;;;14.19;100.00;101332.63;4970021;28;20064;-67
2021/09/27 05:27:52;;;;;;;57.67;27.17;;;;;;;14.20;100.00;101329.00;5006739;28;20214;-70
2021/09/27 05:30:37;;;;;;;57.72;26.27;;;;;;;14.22;100.00;101317.31;4991385;28;20496;-70
2021/09/27 05:33:16;;;;;;;61.08;28.65;;;;;;;14.23;100.00;101322.63;5011895;28;20075;-70
2021/09/27 05:35:59;;;;;;;51.38;25.38;;;;;;;14.29;100.00;101318.84;5011602;28;20171;-70
2021/09/27 05:38:35;;;;;;;55.03;26.08;;;;;;;14.32;100.00;101319.59;5012819;28;20793;-70
2021/09/27 05:41:12;;;;;;;53.72;26.15;;;;;;;14.34;100.00;101312.34;5009588;28;20740;-69
2021/09/27 05:43:58;;;;;;;52.72;24.65;;;;;;;14.36;100.00;101304.25;5017077;28;20160;-69
2021/09/27 05:46:51;;;;;;;54.72;27.17;;;;;;;14.37;100.00;101312.25;5011938;28;20404;-70
2021/09/27 05:49:28;;;;;;;44.15;23.05;;;;;;;14.38;100.00;101313.09;5016239;28;20052;-70
2021/09/27 05:52:03;;;;;;;51.47;24.20;;;;;;;14.41;100.00;101322.84;5016231;28;20083;-70
2021/09/27 05:54:39;;;;;;;52.13;24.52;;;;;;;14.43;100.00;101321.84;5012939;28;20634;-70
2021/09/27 05:57:13;;;;;;;48.08;24.48;;;;;;;14.48;100.00;101310.94;5013034;28;20053;-69
2021/09/27 05:59:49;;;;;;;46.47;22.83;;;;;;;14.52;100.00;101313.44;5013327;28;20135;-70
2021/09/27 06:02:32;;;;;;;44.60;22.70;;;;;;;14.58;100.00;101301.56;5013072;28;20049;-69
2021/09/27 06:05:16;;;;;;;39.35;21.05;;;;;;;14.65;100.00;101305.75;5013199;28;20053;-69
2021/09/27 06:07:48;;;;;;;;;;;;;;;14.72;100.00;101309.94;5015384;28;20055;-70
2021/09/27 06:10:22;;;;;;;41.17;20.90;;;;;;;14.83;100.00;101312.19;5013232;28;19932;-69
2021/09/27 06:13:02;;;;;;;45.17;20.88;;;;;;;14.85;100.00;101315.66;5005795;28;20053;-69
2021/09/27 06:15:43;;;;;;;40.30;21.50;;;;;;;14.87;100.00;101316.47;5012060;28;23329;-70
2021/09/27 06:18:24;;;;;;;36.25;19.35;;;;;;;14.92;100.00;101308.22;5014728;28;20207;-69
2021/09/27 06:21:13;;;;;;;36.42;19.27;;;;;;;14.93;100.00;101307.28;5011184;28;20414;-66
2021/09/27 06:24:02;;;;;;;38.47;18.80;;;;;;;15.00;100.00;101316.84;5017819;28;20542;-66
2021/09/27 06:26:37;;;;;;;34.45;19.00;;;;;;;15.02;100.00;101309.56;5010946;28;20824;-70
2021/09/27 06:29:12;;;;;;;37.80;18.65;;;;;;;15.06;100.00;101302.25;5014735;28;20056;-70
2021/09/27 06:31:46;;;;;;;36.72;17.38;;;;;;;15.09;100.00;101294.06;5014432;28;20110;-70
2021/09/27 06:34:22;;;;;;;35.38;18.70;;;;;;;15.12;100.00;101297.50;5017985;28;20049;-69
2021/09/27 06:36:51;;;;;;;30.27;16.80;;;;;;;15.13;100.00;101279.53;5010430;28;20052;-69
2021/09/27 06:39:27;;;;;;;32.25;17.02;;;;;;;15.21;100.00;101269.31;5015756;28;20546;-69
2021/09/27 06:41:55;;;;;;;33.42;17.67;;;;;;;15.24;100.00;101262.94;5016511;28;20143;-69
2021/09/27 06:44:24;;;;;;;29.88;17.45;;;;;;;15.24;100.00;101253.06;5015951;28;20048;-69
2021/09/27 06:46:52;;;;;;;31.95;16.85;;;;;;;15.28;100.00;101264.53;5014443;28;20294;-70
2021/09/27 06:49:20;;;;;;;28.55;15.48;;;;;;;15.29;100.00;101269.84;5015682;28;20044;-69
2021/09/27 06:51:48;;;;;;;31.75;16.75;;;;;;;15.29;100.00;101260.94;5018226;28;20665;-71
2021/09/27 06:54:20;;;;;;;32.35;16.92;;;;;;;15.36;100.00;101261.50;5005895;28;20049;-70
2021/09/27 06:56:49;;;;;;;32.53;17.85;;;;;;;15.37;100.00;101258.75;5012881;28;20049;-70
2021/09/27 06:59:20;;;;;;;30.58;16.50;;;;;;;15.41;100.00;101267.53;5010060;28;20059;-70
2021/09/27 07:01:48;;;;;;;34.20;17.23;;;;;;;15.46;100.00;101254.75;5014765;28;20056;-69
2021/09/27 07:04:16;;;;;;;30.40;18.15;;;;;;;15.48;100.00;101255.59;5013697;28;20049;-69
2021/09/27 07:06:44;;;;;;;33.05;17.70;;;;;;;15.48;100.00;101266.34;5014529;28;20152;-70
2021/09/27 07:09:13;;;;;;;31.30;16.73;;;;;;;15.54;100.00;101257.09;5015205;28;20398;-69
2021/09/27 07:11:43;;;;;;;34.20;17.95;;;;;;;15.53;100.00;101267.00;5006129;28;20053;-69
2021/09/27 07:14:12;;;;;;;30.48;15.70;;;;;;;15.62;100.00;101268.38;5019671;28;20064;-70
2021/09/27 07:16:43;;;;;;;31.30;17.55;;;;;;;15.63;100.00;101271.00;5008848;28;20343;-70
2021/09/27 07:19:11;;;;;;;30.67;16.50;;;;;;;15.62;100.00;101268.38;5012412;28;20494;-70
2021/09/27 07:21:42;;;;;;;35.67;18.13;;;;;;;15.62;100.00;101276.47;5017137;28;20049;-69
2021/09/27 07:24:11;;;;;;;32.58;18.35;;;;;;;15.65;100.00;101271.81;5013029;28;20084;-69
2021/09/27 07:26:40;;;;;;;33.58;18.00;;;;;;;15.73;100.00;101282.19;5015312;28;20537;-70
2021/09/27 07:29:10;;;;;;;33.75;17.55;;;;;;;15.79;100.00;101287.34;5012092;28;20164;-69
2021/09/27 07:31:38;;;;;;;36.60;18.13;;;;;;;15.80;100.00;101286.41;5013069;28;20045;-69
2021/09/27 07:34:07;;;;;;;34.97;20.23;;;;;;;15.85;100.00;101275.41;5016007;28;20139;-69
2021/09/27 07:36:36;;;;;;;37.15;20.92;;;;;;;15.91;100.00;101260.81;5011537;28;20071;-69
2021/09/27 07:39:06;;;;;;;40.75;23.30;;;;;;;15.87;100.00;101262.78;5012987;28;20139;-69
2021/09/27 07:41:35;;;;;;;41.25;21.13;;;;;;;15.91;100.00;101258.97;5015910;28;20519;-70
2021/09/27 07:44:03;;;;;;;39.67;21.85;;;;;;;15.94;100.00;101266.03;5014562;28;20073;-69
2021/09/27 07:46:33;;;;;;;43.78;22.77;;;;;;;15.91;100.00;101263.50;5012854;28;20371;-69
2021/09/27 07:49:01;;;;;;;45.97;22.77;;;;;;;15.90;100.00;101259.91;5008161;28;20611;-69
2021/09/27 07:51:29;;;;;;;41.58;21.15;;;;;;;15.96;100.00;101258.75;5010055;28;20057;-69
2021/09/27 07:53:57;;;;;;;37.95;20.35;;;;;;;16.03;100.00;101255.69;5003195;28;20053;-69
2021/09/27 07:56:25;;;;;;;47.58;23.88;;;;;;;15.97;100.00;101247.94;5012987;28;20292;-69
2021/09/27 07:58:52;;;;;;;50.33;25.40;;;;;;;15.99;100.00;101240.66;5011923;28;20148;-69
2021/09/27 08:01:20;;;;;;;54.40;26.40;;;;;;;15.97;100.00;101255.09;5012077;28;20324;-69
2021/09/27 08:03:49;;;;;;;50.40;25.20;;;;;;;15.99;100.00;101255.94;5007467;28;20173;-69
2021/09/27 08:06:17;;;;;;;59.15;27.92;;;;;;;15.97;100.00;101250.63;5008416;28;20059;-65
2021/09/27 08:08:45;;;;;;;56.95;27.33;;;;;;;16.05;100.00;101245.72;5014837;28;20052;-66
2021/09/27 08:11:13;;;;;;;57.90;27.77;;;;;;;16.12;100.00;101240.91;5002899;28;20312;-65
2021/09/27 08:13:43;;;;;;;50.03;26.13;;;;;;;16.17;100.00;101251.44;5004737;28;20561;-65
2021/09/27 08:16:13;;;;;;;51.80;27.40;;;;;;;16.20;100.00;101232.47;5005237;28;20554;-66
2021/09/27 08:18:41;;;;;;;54.55;29.40;;;;;;;16.27;100.00;101225.81;5008767;28;20191;-65
2021/09/27 08:21:14;;;;;;;54.75;28.58;;;;;;;16.37;100.00;101227.09;5007023;28;20136;-65
2021/09/27 08:23:47;;;;;;;51.15;27.27;;;;;;;16.45;100.00;101221.34;5009366;28;20053;-65
2021/09/27 08:26:16;;;;;;;49.22;26.25;;;;;;;16.61;100.00;101221.44;5009089;28;20201;-66
2021/09/27 08:28:44;;;;;;;45.83;26.20;;;;;;;16.72;100.00;101216.38;5007573;28;20077;-66
2021/09/27 08:31:14;;;;;;;46.83;26.48;;;;;;;16.86;100.00;101194.13;5007653;28;20456;-66
2021/09/27 08:33:43;;;;;;;48.97;25.27;;;;;;;16.88;100.00;101194.91;5007165;28;20076;-65
2021/09/27 08:36:15;;;;;;;52.22;25.63;;;;;;;16.95;100.00;101187.34;5011796;28;20057;-65
2021/09/27 08:39:07;;;;;;;45.70;23.23;;;;;;;16.97;100.00;101193.53;5006444;28;21020;-65
2021/09/27 08:41:51;;;;;;;41.40;23.63;;;;;;;17.04;100.00;101192.25;5007500;28;20330;-66
2021/09/27 08:44:49;;;;;;;43.20;23.42;;;;;;;17.08;100.00;101191.16;5015103;28;20049;-66
2021/09/27 08:47:27;;;;;;;41.50;23.50;;;;;;;16.97;100.00;101189.03;5014038;28;21612;-65
2021/09/27 08:50:04;;;;;;;34.85;20.90;;;;;;;17.07;100.00;101194.78;5009677;28;20076;-66
2021/09/27 08:52:38;;;;;;;36.75;20.88;;;;;;;17.22;100.00;101187.69;5007062;28;20511;-66
2021/09/27 08:55:11;;;;;;;36.42;20.35;;;;;;;17.27;100.00;101179.38;5012195;28;20663;-67
2021/09/27 08:57:50;;;;;;;30.58;18.20;;;;;;;17.26;99.54;101186.56;5010085;28;20161;-65
2021/09/27 09:00:41;;;;;;;34.45;18.20;;;;;;;17.40;98.96;101179.53;5011462;28;20465;-67
2021/09/27 09:03:17;;;;;;;26.60;15.87;;;;;;;17.30;98.48;101190.00;5010429;28;20046;-65
2021/09/27 09:05:52;;;;;;;30.58;15.85;;;;;;;17.30;98.39;101174.66;5009748;28;20184;-65
2021/09/27 09:08:28;;;;;;;28.10;15.40;;;;;;;17.25;98.33;101167.81;5011723;28;20049;-65
2021/09/27 09:11:00;;;;;;;24.88;14.50;;;;;;;17.30;98.52;101177.38;5003812;28;20060;-65
2021/09/27 09:13:35;;;;;;;23.90;14.82;;;;;;;17.31;97.32;101180.94;5004342;28;20049;-68
2021/09/27 09:16:08;;;;;;;25.15;13.85;;;;;;;17.29;97.26;101175.63;5008506;28;20045;-66
2021/09/27 09:18:41;;;;;;;26.38;15.30;;;;;;;17.37;97.47;101167.13;5002475;28;20557;-66
2021/09/27 09:21:19;;;;;;;25.55;13.70;;;;;;;17.48;96.21;101166.50;5009164;28;20528;-65
2021/09/27 09:24:17;;;;;;;23.88;12.85;;;;;;;17.51;96.46;101159.09;5006855;28;20152;-65
2021/09/27 09:26:48;;;;;;;24.92;13.50;;;;;;;17.59;95.29;101160.50;5005975;28;20517;-65
2021/09/27 09:29:21;;;;;;;22.27;13.52;;;;;;;17.66;94.82;101161.91;5010837;28;20155;-65
2021/09/27 09:31:52;;;;;;;22.95;13.05;;;;;;;17.75;94.69;101155.97;5003028;28;20508;-66
2021/09/27 09:34:32;;;;;;;20.85;12.52;;;;;;;17.94;93.67;101157.66;5018617;28;20053;-66
2021/09/27 09:37:07;;;;;;;20.58;12.48;;;;;;;17.78;93.74;101158.50;5014329;28;20049;-66
2021/09/27 09:39:40;;;;;;;23.05;12.25;;;;;;;17.84;94.37;101154.59;5014607;28;20056;-66
2021/09/27 09:42:25;;;;;;;21.83;12.35;;;;;;;17.88;93.55;101159.75;5008140;28;20178;-66
2021/09/27 09:44:54;;;;;;;26.02;12.32;;;;;;;18.01;93.40;101149.09;5009603;28;20126;-65
2021/09/27 09:47:24;;;;;;;19.20;11.45;;;;;;;17.94;93.38;101149.56;5005442;28;20398;-66
2021/09/27 09:49:57;;;;;;;22.08;12.13;;;;;;;17.98;92.92;101137.63;5010112;28;20258;-69
2021/09/27 09:52:29;;;;;;;21.20;11.85;;;;;;;18.08;92.46;101144.22;5008300;28;20525;-67
2021/09/27 09:54:59;;;;;;;24.13;11.32;;;;;;;18.06;92.13;101140.75;5011322;28;20049;-70
2021/09/27 09:57:34;;;;;;;19.75;12.23;;;;;;;18.04;90.96;101135.44;5016289;28;20135;-67
2021/09/27 10:00:11;;;;;;;18.70;10.80;;;;;;;18.09;91.00;101116.25;5014344;28;20160;-67
2021/09/27 10:02:45;;;;;;;19.90;10.10;;;;;;;18.07;90.83;101135.25;5014415;28;20080;-67
2021/09/27 10:05:35;;;;;;;17.42;10.30;;;;;;;18.10;89.88;101143.19;5008895;28;20052;-70
2021/09/27 10:08:05;;;;;;;16.35;8.70;;;;;;;18.21;89.36;101147.06;5010197;28;20136;-67
2021/09/27 10:10:38;;;;;;;18.08;9.15;;;;;;;18.38;89.21;101146.06;5012778;28;20080;-68
2021/09/27 10:13:26;;;;;;;13.15;7.97;;;;;;;18.53;87.82;101146.97;5004127;28;20289;-67
2021/09/27 10:15:55;;;;;;;14.27;7.70;;;;;;;18.73;86.40;101145.75;5009816;28;20591;-70
2021/09/27 10:18:27;;;;;;;13.73;7.47;;;;;;;18.70;85.43;101145.97;5008175;28;20217;-69
2021/09/27 10:21:10;;;;;;;16.67;6.88;;;;;;;18.82;85.07;101153.31;5011524;28;20052;-68
2021/09/27 10:23:41;;;;;;;13.68;6.88;;;;;;;18.67;83.78;101161.38;5007791;28;20060;-70
2021/09/27 10:26:19;;;;;;;11.35;6.28;;;;;;;18.68;82.79;101140.66;5006694;28;20326;-70
2021/09/27 10:29:16;;;;;;;12.18;6.03;;;;;;;18.78;83.49;101117.50;5014909;28;20052;-68
2021/09/27 10:31:49;;;;;;;12.13;5.50;;;;;;;18.84;82.85;101119.81;5014476;28;20149;-66
2021/09/27 10:34:20;;;;;;;10.95;5.30;;;;;;;18.79;82.04;101130.03;5016024;28;20126;-68
2021/09/27 10:36:52;;;;;;;12.38;5.45;;;;;;;18.90;81.73;101129.41;5013681;28;20735;-68
2021/09/27 10:39:22;;;;;;;12.48;5.82;;;;;;;18.91;81.52;101127.56;5013902;28;20060;-68
2021/09/27 10:41:55;;;;;;;11.52;4.95;;;;;;;19.10;80.48;101128.13;5017393;28;20061;-68
2021/09/27 10:44:26;;;;;;;9.18;5.28;;;;;;;19.66;78.77;101119.16;5019776;28;20063;-69
2021/09/27 10:47:02;;;;;;;9.73;5.13;;;;;;;20.02;76.42;101134.81;5012395;28;20141;-68
2021/09/27 10:49:35;;;;;;;9.93;5.40;;;;;;;20.00;77.68;101127.78;5020766;28;20053;-71
2021/09/27 10:52:24;;;;;;;10.63;5.33;;;;;;;19.90;77.91;101124.81;5012821;28;20053;-68
2021/09/27 10:54:58;;;;;;;9.93;5.28;;;;;;;19.86;78.03;101116.03;5021044;28;20294;-67
2021/09/27 10:57:38;;;;;;;11.00;5.47;;;;;;;19.85;77.50;101118.84;5011126;28;20060;-67
2021/09/27 11:00:17;;;;;;;10.50;4.85;;;;;;;19.82;78.07;101114.50;5010453;28;20052;-68
2021/09/27 11:03:15;;;;;;;10.25;5.30;;;;;;;19.76;77.29;101114.91;5008814;28;20063;-69
2021/09/27 11:05:51;;;;;;;13.27;5.45;;;;;;;19.78;76.87;101097.59;5017814;28;20456;-67
2021/09/27 11:08:50;;;;;;;10.98;5.90;;;;;;;20.09;76.89;101098.25;5011407;28;20053;-66
2021/09/27 11:11:33;;;;;;;10.40;5.07;;;;;;;19.99;77.10;101085.41;5009398;28;20363;-70
2021/09/27 11:14:22;;;;;;;14.07;5.75;;;;;;;19.81;76.74;101093.81;5011674;28;20168;-71
2021/09/27 11:16:58;;;;;;;10.85;5.30;;;;;;;19.87;77.22;101100.63;5016364;28;20108;-71
2021/09/27 11:19:39;;;;;;;9.50;5.10;;;;;;;20.17;76.07;101094.13;5013265;28;20045;-72
2021/09/27 11:22:36;;;;;;;9.68;5.03;;;;;;;20.06;76.20;101097.59;5015371;28;20041;-68
2021/09/27 11:25:25;;;;;;;9.77;5.38;;;;;;;20.03;76.16;101095.09;5008001;28;20425;-69
2021/09/27 11:28:23;;;;;;;9.23;4.70;;;;;;;20.05;76.57;101095.84;5010754;28;20049;-71
2021/09/27 11:31:17;;;;;;;9.50;5.10;;;;;;;19.94;76.27;101110.13;5012587;28;20072;-70
2021/09/27 11:33:50;;;;;;;11.82;4.70;;;;;;;19.66;77.57;101101.06;5013832;28;20486;-68
2021/09/27 11:36:35;;;;;;;9.30;4.60;;;;;;;19.67;79.29;101100.13;5015960;28;20408;-67
2021/09/27 11:39:33;;;;;;;13.88;5.03;;;;;;;19.34;81.50;101125.72;5016260;28;20101;-71
2021/09/27 11:42:14;;;;;;;11.00;4.53;;;;;;;19.14;84.19;101113.47;5012604;28;20053;-68
2021/09/27 11:44:56;;;;;;;8.73;4.50;;;;;;;19.02;84.08;101115.09;5010935;28;20064;-68
2021/09/27 11:47:47;;;;;;;9.02;5.18;;;;;;;18.97;85.79;101117.22;5013013;28;20110;-67
2021/09/27 11:51:01;;;;;;;10.30;5.28;;;;;;;18.90;85.98;101107.78;5014447;28;20147;-67